createdAt,value
2023-03-31T00:01:12.534Z,21.60
2023-03-31T00:03:44.514Z,21.58
2023-03-31T00:06:18.029Z,23.42
2023-03-31T00:08:47.229Z,22.58
2023-03-31T00:11:14.537Z,21.45
2023-03-31T00:13:41.765Z,21.55
2023-03-31T00:16:15.135Z,22.45
2023-03-31T00:18:47.196Z,22.00
2023-03-31T00:21:29.767Z,20.58
2023-03-31T00:23:59.814Z,21.75
2023-03-31T00:26:27.922Z,22.88
2023-03-31T00:28:55.618Z,21.23
2023-03-31T00:31:23.672Z,22.83
2023-03-31T00:33:51.210Z,22.45
2023-03-31T00:36:21.437Z,22.05
2023-03-31T00:38:49.309Z,22.52
2023-03-31T00:41:16.614Z,22.15
2023-03-31T00:44:24.245Z,22.25
2023-03-31T00:49:54.945Z,21.73
2023-03-31T00:52:37.415Z,22.70
2023-03-31T00:55:10.809Z,21.70
2023-03-31T00:57:41.625Z,21.98
2023-03-31T01:00:15.514Z,21.27
2023-03-31T01:02:58.706Z,22.75
2023-03-31T01:05:34.276Z,23.08
2023-03-31T01:08:05.625Z,23.00
2023-03-31T01:10:41.799Z,23.42
2023-03-31T01:15:42.118Z,23.80
2023-03-31T01:18:11.842Z,22.23
2023-03-31T01:21:19.889Z,24.60
2023-03-31T01:24:02.309Z,24.15
2023-03-31T01:26:47.814Z,23.45
2023-03-31T01:29:50.323Z,25.33
2023-03-31T01:32:29.940Z,25.88
2023-03-31T01:35:46.383Z,24.02
2023-03-31T01:38:40.285Z,24.90
2023-03-31T01:41:30.022Z,23.80
2023-03-31T01:44:00.949Z,24.80
2023-03-31T01:46:35.841Z,25.02
2023-03-31T01:49:34.481Z,24.95
2023-03-31T01:52:35.203Z,25.02
2023-03-31T01:55:06.645Z,24.70
2023-03-31T01:57:47.672Z,25.23
2023-03-31T02:00:20.381Z,24.40
2023-03-31T02:02:59.693Z,25.65
2023-03-31T02:05:35.523Z,25.52
2023-03-31T02:08:16.775Z,25.05
2023-03-31T02:10:46.324Z,25.58
2023-03-31T02:13:15.813Z,25.25
2023-03-31T02:15:47.789Z,24.77
2023-03-31T02:18:22.242Z,25.42
2023-03-31T02:20:53.025Z,24.02
2023-03-31T02:23:28.001Z,24.50
2023-03-31T02:26:04.410Z,25.38
2023-03-31T02:28:32.688Z,25.50
2023-03-31T02:31:02.871Z,24.85
2023-03-31T02:33:55.436Z,26.02
2023-03-31T02:36:23.447Z,26.60
2023-03-31T02:38:57.366Z,26.85
2023-03-31T02:41:25.048Z,25.67
2023-03-31T02:43:52.312Z,27.70
2023-03-31T02:46:19.911Z,26.58
2023-03-31T02:48:50.885Z,27.30
2023-03-31T02:51:32.072Z,27.08
2023-03-31T02:54:34.119Z,27.00
2023-03-31T02:57:17.293Z,27.17
2023-03-31T03:00:04.962Z,26.75
2023-03-31T03:02:51.833Z,27.35
2023-03-31T03:05:29.475Z,28.38
2023-03-31T03:08:37.706Z,29.73
2023-03-31T03:11:46.388Z,27.40
2023-03-31T03:14:36.982Z,29.13
2023-03-31T03:17:17.260Z,27.13
2023-03-31T03:19:44.606Z,29.05
2023-03-31T03:22:11.918Z,28.02
2023-03-31T03:24:39.881Z,27.40
2023-03-31T03:27:07.123Z,27.27
2023-03-31T03:29:34.551Z,28.52
2023-03-31T03:32:01.804Z,27.63
2023-03-31T03:34:31.552Z,28.13
2023-03-31T03:36:58.902Z,27.52
2023-03-31T03:39:26.122Z,28.17
2023-03-31T03:41:53.553Z,28.52
2023-03-31T03:44:20.838Z,28.98
2023-03-31T03:46:48.296Z,27.73
2023-03-31T03:49:15.978Z,28.08
2023-03-31T03:51:43.205Z,27.80
2023-03-31T03:54:10.506Z,27.45
2023-03-31T03:56:37.810Z,27.88
2023-03-31T03:59:05.038Z,28.80
2023-03-31T04:01:32.469Z,28.70
2023-03-31T04:03:59.876Z,28.33
2023-03-31T04:06:27.122Z,28.20
2023-03-31T04:08:54.639Z,27.90
2023-03-31T04:11:22.021Z,29.02
2023-03-31T04:13:49.304Z,27.90
2023-03-31T04:16:16.842Z,28.38
2023-03-31T04:18:44.345Z,30.80
2023-03-31T04:21:22.567Z,30.42
2023-03-31T04:24:04.779Z,30.42
2023-03-31T04:26:42.957Z,29.75
2023-03-31T04:29:16.550Z,29.50
2023-03-31T04:31:44.527Z,30.80
2023-03-31T04:34:14.189Z,30.67
2023-03-31T04:36:49.526Z,30.20
2023-03-31T04:39:18.603Z,29.92
2023-03-31T04:41:45.905Z,30.13
2023-03-31T04:44:13.288Z,31.27
2023-03-31T04:46:40.909Z,31.00
2023-03-31T04:49:08.108Z,30.08
2023-03-31T04:51:35.355Z,30.15
2023-03-31T04:54:03.291Z,30.10
2023-03-31T04:56:30.975Z,31.08
2023-03-31T04:58:58.203Z,29.52
2023-03-31T05:01:25.466Z,30.95
2023-03-31T05:03:53.091Z,30.48
2023-03-31T05:06:20.614Z,30.27
2023-03-31T05:08:47.800Z,28.88
2023-03-31T05:11:15.367Z,29.80
2023-03-31T05:13:42.730Z,31.10
2023-03-31T05:16:14.645Z,30.27
2023-03-31T05:18:42.367Z,29.67
2023-03-31T05:21:16.258Z,31.77
2023-03-31T05:23:44.384Z,28.60
2023-03-31T05:26:13.663Z,29.70
2023-03-31T05:28:41.556Z,31.17
2023-03-31T05:31:11.293Z,30.48
2023-03-31T05:33:41.639Z,30.45
2023-03-31T05:36:15.576Z,30.00
2023-03-31T05:38:43.913Z,31.42
2023-03-31T05:41:11.874Z,29.90
2023-03-31T05:43:39.743Z,30.38
2023-03-31T05:46:08.154Z,30.52
2023-03-31T05:48:37.899Z,29.33
2023-03-31T05:51:05.504Z,29.95
2023-03-31T05:53:34.033Z,30.10
2023-03-31T05:56:03.275Z,29.48
2023-03-31T05:58:31.268Z,29.92
2023-03-31T06:01:07.582Z,30.15
2023-03-31T06:03:37.252Z,28.92
2023-03-31T06:06:06.244Z,29.17
2023-03-31T06:08:34.499Z,29.77
2023-03-31T06:11:06.534Z,30.15
2023-03-31T06:13:35.600Z,30.65
2023-03-31T06:16:03.210Z,28.98
2023-03-31T06:18:32.549Z,30.10
2023-03-31T06:20:59.856Z,28.90
2023-03-31T06:23:27.187Z,28.60
2023-03-31T06:25:54.488Z,26.48
2023-03-31T06:28:22.003Z,26.35
2023-03-31T06:30:49.417Z,26.17
2023-03-31T06:33:16.752Z,26.85
2023-03-31T06:35:44.067Z,26.65
2023-03-31T06:38:11.303Z,26.40
2023-03-31T06:40:38.504Z,27.80
2023-03-31T06:43:06.049Z,25.83
2023-03-31T06:45:33.443Z,26.00
2023-03-31T06:48:00.992Z,27.63
2023-03-31T06:50:28.742Z,25.70
2023-03-31T06:52:56.133Z,25.77
2023-03-31T06:55:23.441Z,27.30
2023-03-31T06:57:50.990Z,29.70
2023-03-31T07:00:21.439Z,30.70
2023-03-31T07:02:50.824Z,31.08
2023-03-31T07:05:19.506Z,31.27
2023-03-31T07:07:46.753Z,30.58
2023-03-31T07:10:13.999Z,31.88
2023-03-31T07:12:41.543Z,30.98
2023-03-31T07:15:09.353Z,30.63
2023-03-31T07:17:37.804Z,28.35
2023-03-31T07:20:10.140Z,29.73
2023-03-31T07:22:37.402Z,31.33
2023-03-31T07:25:30.232Z,33.80
2023-03-31T07:27:57.483Z,31.30
2023-03-31T07:30:24.843Z,32.03
2023-03-31T07:32:52.868Z,31.90
2023-03-31T07:35:21.438Z,30.70
2023-03-31T07:37:50.201Z,31.23
2023-03-31T07:40:26.700Z,30.77
2023-03-31T07:42:54.065Z,29.30
2023-03-31T07:45:24.323Z,27.23
2023-03-31T07:47:52.137Z,27.88
2023-03-31T07:50:21.216Z,26.20
2023-03-31T07:52:51.545Z,28.23
2023-03-31T07:55:19.983Z,25.77
2023-03-31T07:57:47.713Z,26.50
2023-03-31T08:00:16.113Z,28.40
2023-03-31T08:02:47.196Z,28.95
2023-03-31T08:05:16.865Z,23.83
2023-03-31T08:07:47.308Z,23.13
2023-03-31T08:10:22.072Z,28.60
2023-03-31T08:12:49.481Z,25.73
2023-03-31T08:15:17.133Z,24.45
2023-03-31T08:17:45.011Z,24.30
2023-03-31T08:20:13.026Z,23.33
2023-03-31T08:22:40.766Z,23.77
2023-03-31T08:25:09.124Z,23.05
2023-03-31T08:27:38.192Z,22.73
2023-03-31T08:30:11.371Z,22.70
2023-03-31T08:32:39.107Z,22.90
2023-03-31T08:35:07.340Z,22.23
2023-03-31T08:37:34.815Z,22.88
2023-03-31T08:40:05.154Z,24.23
2023-03-31T08:43:01.706Z,23.95
2023-03-31T08:45:56.298Z,24.30
2023-03-31T08:48:38.646Z,23.90
2023-03-31T08:51:25.540Z,23.02
2023-03-31T08:54:36.382Z,23.60
2023-03-31T08:57:10.808Z,24.77
2023-03-31T08:59:40.955Z,23.60
2023-03-31T09:02:13.701Z,26.52
2023-03-31T09:05:11.323Z,27.27
2023-03-31T09:08:13.428Z,25.63
2023-03-31T09:10:58.279Z,26.92
2023-03-31T09:13:53.799Z,26.83
2023-03-31T09:16:21.587Z,26.60
2023-03-31T09:18:49.280Z,28.25
2023-03-31T09:21:27.060Z,28.67
2023-03-31T09:24:23.554Z,27.27
2023-03-31T09:27:07.094Z,29.92
2023-03-31T09:29:56.570Z,28.95
2023-03-31T09:32:28.409Z,30.02
2023-03-31T09:35:16.698Z,30.08
2023-03-31T09:37:44.274Z,29.80
2023-03-31T09:40:17.567Z,28.40
2023-03-31T09:42:47.439Z,32.58
2023-03-31T09:45:19.833Z,30.58
2023-03-31T09:47:57.577Z,31.33
2023-03-31T09:50:26.542Z,30.25
2023-03-31T09:52:57.810Z,30.92
2023-03-31T09:55:43.073Z,31.23
2023-03-31T09:58:15.774Z,31.20
2023-03-31T10:00:57.318Z,31.20
2023-03-31T10:03:25.086Z,31.23
2023-03-31T10:05:55.152Z,30.73
2023-03-31T10:08:25.071Z,32.63
2023-03-31T10:11:03.008Z,32.00
2023-03-31T10:13:43.711Z,32.63
2023-03-31T10:16:21.246Z,32.42
2023-03-31T10:18:49.861Z,32.47
2023-03-31T10:21:23.249Z,33.30
2023-03-31T10:23:51.448Z,32.42
2023-03-31T10:26:25.830Z,31.70
2023-03-31T10:28:55.400Z,32.90
2023-03-31T10:31:26.914Z,33.45
2023-03-31T10:33:55.094Z,32.58
2023-03-31T10:36:29.033Z,31.02
2023-03-31T10:38:56.915Z,33.42
2023-03-31T10:41:27.584Z,31.20
2023-03-31T10:44:00.359Z,31.88
2023-03-31T10:46:48.078Z,32.08
2023-03-31T10:49:23.134Z,31.55
2023-03-31T10:51:59.060Z,32.42
2023-03-31T10:54:26.945Z,31.85
2023-03-31T10:57:01.527Z,33.17
2023-03-31T10:59:54.743Z,31.98
2023-03-31T11:02:41.183Z,33.17
2023-03-31T11:08:01.927Z,31.15
2023-03-31T11:11:03.254Z,31.20
2023-03-31T11:14:07.496Z,31.42
2023-03-31T11:16:37.709Z,29.58
2023-03-31T11:19:25.344Z,31.75
2023-03-31T11:22:07.105Z,29.65
2023-03-31T11:24:59.704Z,29.50
2023-03-31T11:27:50.283Z,27.10
2023-03-31T11:30:33.701Z,27.90
2023-03-31T11:33:17.158Z,26.05
2023-03-31T11:35:50.923Z,24.67
2023-03-31T11:38:38.242Z,25.95
2023-03-31T11:41:19.973Z,23.88
2023-03-31T11:43:54.353Z,23.40
2023-03-31T11:46:43.644Z,22.45
2023-03-31T11:49:31.030Z,20.88
2023-03-31T11:52:03.438Z,21.27
2023-03-31T11:54:55.552Z,21.10
2023-03-31T11:57:31.546Z,20.95
2023-03-31T12:03:04.554Z,19.80
2023-03-31T12:05:35.521Z,18.42
2023-03-31T12:08:12.136Z,19.60
2023-03-31T12:10:44.466Z,19.05
2023-03-31T12:13:17.725Z,18.38
2023-03-31T12:15:54.333Z,17.73
2023-03-31T12:18:25.954Z,18.02
2023-03-31T12:20:56.448Z,18.17
2023-03-31T12:23:28.535Z,18.55
2023-03-31T12:26:14.713Z,20.05
2023-03-31T12:28:44.356Z,19.42
2023-03-31T12:31:20.428Z,20.50
2023-03-31T12:33:58.434Z,20.02
2023-03-31T12:36:46.828Z,19.48
2023-03-31T12:39:48.378Z,18.85
2023-03-31T12:42:34.766Z,18.88
2023-03-31T12:45:30.352Z,19.10
2023-03-31T12:48:13.269Z,18.55
2023-03-31T12:50:55.453Z,18.13
2023-03-31T12:53:36.976Z,17.23
2023-03-31T12:56:04.516Z,17.63
2023-03-31T12:58:34.016Z,15.90
2023-03-31T13:01:07.706Z,17.90
2023-03-31T13:04:10.056Z,16.23
2023-03-31T13:06:42.437Z,16.20
2023-03-31T13:10:25.302Z,16.05
2023-03-31T13:13:07.352Z,17.45
2023-03-31T13:15:34.854Z,16.60
2023-03-31T13:18:07.857Z,16.65
2023-03-31T13:20:41.222Z,17.00
2023-03-31T13:23:11.752Z,16.95
2023-03-31T13:29:59.496Z,13.60
2023-03-31T13:32:27.810Z,14.15
2023-03-31T13:35:05.710Z,14.40
2023-03-31T13:38:07.096Z,15.50
2023-03-31T13:41:10.556Z,15.05
2023-03-31T13:43:48.662Z,12.70
2023-03-31T13:46:34.689Z,14.30
2023-03-31T13:49:33.019Z,11.63
2023-03-31T13:52:03.294Z,13.93
2023-03-31T13:54:49.519Z,15.32
2023-03-31T13:57:35.619Z,14.55
2023-03-31T14:00:15.168Z,13.23
2023-03-31T14:03:14.607Z,12.48
2023-03-31T14:05:53.653Z,13.15
2023-03-31T14:08:39.650Z,12.73
2023-03-31T14:11:17.330Z,13.23
2023-03-31T14:13:44.732Z,13.15
2023-03-31T14:16:13.891Z,13.18
2023-03-31T14:18:49.382Z,12.43
2023-03-31T14:21:43.054Z,12.88
2023-03-31T14:24:13.347Z,13.00
2023-03-31T14:27:08.744Z,12.38
2023-03-31T14:29:45.041Z,12.77
2023-03-31T14:32:38.170Z,12.10
2023-03-31T14:35:28.874Z,12.00
2023-03-31T14:37:57.503Z,11.30
2023-03-31T14:40:25.334Z,11.85
2023-03-31T14:42:52.733Z,11.10
2023-03-31T14:45:24.918Z,12.15
2023-03-31T14:47:57.477Z,10.80
2023-03-31T14:50:35.619Z,10.40
2023-03-31T14:53:04.691Z,10.45
2023-03-31T14:55:54.346Z,11.23
2023-03-31T14:58:29.643Z,10.13
2023-03-31T15:00:57.056Z,10.73
2023-03-31T15:03:26.188Z,10.45
2023-03-31T15:06:01.697Z,9.43
2023-03-31T15:08:30.883Z,9.68
2023-03-31T15:11:12.010Z,9.45
2023-03-31T15:14:03.668Z,9.88
2023-03-31T15:16:35.749Z,9.38
2023-03-31T15:19:28.463Z,8.95
2023-03-31T15:22:06.007Z,9.38
2023-03-31T15:24:33.528Z,9.27
2023-03-31T15:27:06.417Z,9.23
2023-03-31T15:29:41.445Z,8.90
2023-03-31T15:32:16.026Z,10.02
2023-03-31T15:34:46.316Z,8.85
2023-03-31T15:37:13.798Z,8.70
2023-03-31T15:39:46.908Z,9.32
2023-03-31T15:42:14.288Z,9.50
2023-03-31T15:44:54.371Z,9.70
2023-03-31T15:47:31.674Z,10.45
2023-03-31T15:50:13.358Z,10.25
2023-03-31T15:52:49.790Z,12.80
2023-03-31T15:55:23.345Z,10.35
2023-03-31T15:57:51.803Z,10.48
2023-03-31T16:00:38.411Z,10.43
2023-03-31T16:05:54.542Z,10.02
2023-03-31T16:08:27.592Z,11.25
2023-03-31T16:11:21.027Z,10.60
2023-03-31T16:13:53.831Z,11.75
2023-03-31T16:16:24.056Z,11.13
2023-03-31T16:18:55.498Z,12.18
2023-03-31T16:21:28.359Z,13.48
2023-03-31T16:23:59.332Z,15.70
2023-03-31T16:26:29.156Z,16.65
2023-03-31T16:28:57.699Z,16.48
2023-03-31T16:32:08.413Z,18.13
2023-03-31T16:34:51.167Z,16.75
2023-03-31T16:37:18.631Z,17.90
2023-03-31T16:39:46.013Z,18.98
2023-03-31T16:42:13.257Z,18.52
2023-03-31T16:44:41.625Z,17.02
2023-03-31T16:47:13.228Z,17.52
2023-03-31T16:49:44.813Z,17.27
2023-03-31T16:52:12.341Z,17.08
2023-03-31T16:54:39.635Z,17.27
2023-03-31T16:57:07.102Z,16.88
2023-03-31T16:59:34.384Z,17.58
2023-03-31T17:02:01.654Z,18.55
2023-03-31T17:04:29.565Z,19.27
2023-03-31T17:06:57.287Z,12.35
2023-03-31T17:09:24.612Z,14.90
2023-03-31T17:11:51.865Z,16.92
2023-03-31T17:14:19.744Z,16.73
2023-03-31T17:16:48.767Z,16.92
2023-03-31T17:19:17.280Z,17.42
2023-03-31T17:21:44.529Z,18.05
2023-03-31T17:24:12.015Z,19.52
2023-03-31T17:26:39.503Z,18.65
2023-03-31T17:29:06.827Z,18.23
2023-03-31T17:31:34.130Z,18.70
2023-03-31T17:34:01.579Z,18.95
2023-03-31T17:36:29.175Z,18.98
2023-03-31T17:38:59.990Z,18.85
2023-03-31T17:41:29.650Z,16.98
2023-03-31T17:43:57.354Z,19.13
2023-03-31T17:46:24.756Z,17.95
2023-03-31T17:48:53.686Z,20.63
2023-03-31T17:51:21.308Z,20.35
2023-03-31T17:53:48.871Z,20.17
2023-03-31T17:56:17.599Z,22.15
2023-03-31T17:58:45.604Z,21.52
2023-03-31T18:01:13.748Z,21.35
2023-03-31T18:03:41.260Z,20.88
2023-03-31T18:06:12.522Z,20.17
2023-03-31T18:08:41.573Z,23.20
2023-03-31T18:11:09.666Z,24.30
2023-03-31T18:13:37.596Z,24.13
2023-03-31T18:16:08.465Z,22.88
2023-03-31T18:18:39.438Z,21.25
2023-03-31T18:21:09.124Z,21.90
2023-03-31T18:23:37.359Z,21.77
2023-03-31T18:26:09.648Z,21.38
2023-03-31T18:28:37.160Z,20.45
2023-03-31T18:31:05.757Z,21.20
2023-03-31T18:33:33.337Z,20.50
2023-03-31T18:36:01.943Z,20.58
2023-03-31T18:38:30.443Z,22.55
2023-03-31T18:40:57.965Z,21.95
2023-03-31T18:43:26.036Z,21.40
2023-03-31T18:45:55.286Z,20.63
2023-03-31T18:48:23.226Z,20.90
2023-03-31T18:50:51.904Z,19.45
2023-03-31T18:53:20.911Z,18.88
2023-03-31T18:55:53.510Z,19.73
2023-03-31T18:58:21.169Z,19.45
2023-03-31T19:00:48.667Z,19.05
2023-03-31T19:03:16.444Z,51.63
2023-03-31T19:05:44.531Z,27.17
2023-03-31T19:08:11.776Z,23.02
2023-03-31T19:10:39.195Z,21.25
2023-03-31T19:13:06.676Z,19.13
2023-03-31T19:15:36.973Z,21.50
2023-03-31T19:18:04.706Z,23.75
2023-03-31T19:20:32.113Z,19.80
2023-03-31T19:22:59.449Z,21.00
2023-03-31T19:25:27.247Z,19.92
2023-03-31T19:27:55.516Z,20.55
2023-03-31T19:30:25.008Z,19.90
2023-03-31T19:32:53.554Z,19.77
2023-03-31T19:35:21.631Z,19.33
2023-03-31T19:37:49.787Z,19.13
2023-03-31T19:40:17.116Z,19.05
2023-03-31T19:42:44.638Z,20.38
2023-03-31T19:45:12.385Z,21.58
2023-03-31T19:47:39.780Z,19.10
2023-03-31T19:50:08.418Z,19.80
2023-03-31T19:52:36.536Z,19.73
2023-03-31T19:55:04.949Z,18.35
2023-03-31T19:57:32.607Z,18.85
2023-03-31T19:59:59.958Z,19.08
2023-03-31T20:02:27.469Z,18.85
2023-03-31T20:04:54.969Z,19.58
2023-03-31T20:07:23.084Z,18.98
2023-03-31T20:09:50.556Z,19.15
2023-03-31T20:12:18.406Z,20.52
2023-03-31T20:14:45.746Z,21.10
2023-03-31T20:17:13.072Z,22.30
2023-03-31T20:19:40.335Z,22.38
2023-03-31T20:22:07.612Z,23.35
2023-03-31T20:24:35.029Z,21.73
2023-03-31T20:27:02.738Z,21.75
2023-03-31T20:29:30.197Z,21.42
2023-03-31T20:31:57.554Z,20.73
2023-03-31T20:34:24.925Z,22.63
2023-03-31T20:36:52.270Z,21.58
2023-03-31T20:39:20.756Z,21.70
2023-03-31T20:41:50.053Z,21.65
2023-03-31T20:44:17.443Z,22.90
2023-03-31T20:46:45.026Z,24.70
2023-03-31T20:49:12.556Z,24.63
2023-03-31T20:51:41.088Z,22.95
2023-03-31T20:54:09.149Z,23.00
2023-03-31T20:56:42.017Z,22.45
2023-03-31T20:59:15.394Z,23.65
2023-03-31T21:01:45.198Z,23.10
2023-03-31T21:04:14.126Z,23.02
2023-03-31T21:06:45.561Z,23.05
2023-03-31T21:09:14.719Z,23.00
2023-03-31T21:11:43.063Z,22.35
2023-03-31T21:14:15.132Z,22.92
2023-03-31T21:16:42.953Z,23.02
2023-03-31T21:19:11.250Z,23.42
2023-03-31T21:21:41.028Z,25.38
2023-03-31T21:24:11.187Z,23.92
2023-03-31T21:26:42.227Z,25.70
2023-03-31T21:29:11.128Z,23.85
2023-03-31T21:31:39.371Z,25.42
2023-03-31T21:34:10.944Z,24.45
2023-03-31T21:36:41.224Z,25.40
2023-03-31T21:39:11.559Z,25.90
2023-03-31T21:41:40.695Z,26.25
2023-03-31T21:44:09.303Z,26.17
2023-03-31T21:46:40.686Z,25.25
2023-03-31T21:49:08.442Z,26.08
2023-03-31T21:51:36.747Z,27.88
2023-03-31T21:54:04.722Z,31.08
2023-03-31T21:56:32.928Z,31.63
2023-03-31T21:59:02.695Z,27.58
2023-03-31T22:01:31.691Z,27.25
2023-03-31T22:03:59.362Z,27.02
2023-03-31T22:06:26.679Z,27.35
2023-03-31T22:08:54.386Z,26.60
2023-03-31T22:11:23.646Z,25.27
2023-03-31T22:13:52.097Z,25.58
2023-03-31T22:16:22.283Z,25.15
2023-03-31T22:18:50.420Z,27.67
2023-03-31T22:21:23.032Z,27.13
2023-03-31T22:24:18.876Z,25.75
2023-03-31T22:26:53.310Z,23.73
2023-03-31T22:29:23.383Z,23.85
2023-03-31T22:32:24.362Z,23.17
2023-03-31T22:35:03.752Z,23.17
2023-03-31T22:38:14.877Z,23.50
2023-03-31T22:40:52.109Z,23.08
2023-03-31T22:43:24.590Z,25.10
2023-03-31T22:45:55.739Z,24.00
2023-03-31T22:48:23.504Z,25.10
2023-03-31T22:50:51.188Z,23.88
2023-03-31T22:53:22.764Z,24.63
2023-03-31T22:55:54.016Z,25.15
2023-03-31T22:58:23.419Z,24.70
2023-03-31T23:00:58.621Z,24.92
2023-03-31T23:03:27.213Z,25.47
2023-03-31T23:05:54.723Z,25.25
2023-03-31T23:08:25.397Z,24.70
2023-03-31T23:12:41.216Z,25.65
2023-03-31T23:14:50.506Z,27.88
2023-03-31T23:17:18.313Z,25.85
2023-03-31T23:19:52.617Z,24.98
2023-03-31T23:22:21.872Z,23.88
2023-03-31T23:24:52.621Z,23.80
2023-03-31T23:27:22.767Z,23.67
2023-03-31T23:29:51.421Z,23.85
2023-03-31T23:32:19.619Z,23.15
2023-03-31T23:34:47.110Z,25.08
2023-03-31T23:37:15.620Z,24.05
2023-03-31T23:39:46.593Z,25.42
2023-03-31T23:42:17.318Z,25.10
2023-03-31T23:44:44.571Z,24.30
2023-03-31T23:47:12.049Z,24.50
2023-03-31T23:49:45.007Z,25.60
2023-03-31T23:52:12.567Z,27.23
2023-03-31T23:54:39.825Z,25.92
2023-03-31T23:57:07.331Z,27.33
2023-03-31T23:59:34.800Z,26.88
